sensor_id;sensor_type;location;lat;lon;timestamp;P1;durP1;ratioP1;P2;durP2;ratioP2
14268;SDS011;7218;51.480;7.006;2023-04-03T00:00:06;10.57;;;7.10;;
14268;SDS011;7218;51.480;7.006;2023-04-03T00:02:38;10.23;;;7.20;;
14268;SDS011;7218;51.480;7.006;2023-04-03T00:05:05;9.73;;;6.97;;
14268;SDS011;7218;51.480;7.006;2023-04-03T00:07:32;9.60;;;6.97;;
14268;SDS011;7218;51.480;7.006;2023-04-03T00:10:00;9.10;;;6.38;;
14268;SDS011;7218;51.480;7.006;2023-04-03T00:12:27;9.15;;;6.78;;
14268;SDS011;7218;51.480;7.006;2023-04-03T00:14:54;9.57;;;7.07;;
14268;SDS011;7218;51.480;7.006;2023-04-03T00:17:20;10.55;;;6.68;;
14268;SDS011;7218;51.480;7.006;2023-04-03T00:19:47;8.90;;;6.07;;
14268;SDS011;7218;51.480;7.006;2023-04-03T00:22:13;8.10;;;6.45;;
14268;SDS011;7218;51.480;7.006;2023-04-03T00:24:40;10.25;;;6.60;;
14268;SDS011;7218;51.480;7.006;2023-04-03T00:27:08;8.20;;;6.20;;
14268;SDS011;7218;51.480;7.006;2023-04-03T00:29:36;9.40;;;6.53;;
14268;SDS011;7218;51.480;7.006;2023-04-03T00:32:02;8.18;;;6.20;;
14268;SDS011;7218;51.480;7.006;2023-04-03T00:34:29;9.00;;;6.00;;
14268;SDS011;7218;51.480;7.006;2023-04-03T00:36:55;7.97;;;6.00;;
14268;SDS011;7218;51.480;7.006;2023-04-03T00:39:23;8.90;;;6.13;;
14268;SDS011;7218;51.480;7.006;2023-04-03T00:41:49;10.73;;;6.40;;
14268;SDS011;7218;51.480;7.006;2023-04-03T00:47:20;10.48;;;6.03;;
14268;SDS011;7218;51.480;7.006;2023-04-03T00:49:48;10.82;;;6.10;;
14268;SDS011;7218;51.480;7.006;2023-04-03T00:52:17;9.57;;;6.43;;
14268;SDS011;7218;51.480;7.006;2023-04-03T00:54:47;8.25;;;6.00;;
14268;SDS011;7218;51.480;7.006;2023-04-03T00:57:16;10.32;;;6.05;;
14268;SDS011;7218;51.480;7.006;2023-04-03T00:59:44;7.78;;;6.03;;
14268;SDS011;7218;51.480;7.006;2023-04-03T01:02:15;8.07;;;5.63;;
14268;SDS011;7218;51.480;7.006;2023-04-03T01:04:43;7.50;;;6.45;;
14268;SDS011;7218;51.480;7.006;2023-04-03T01:07:11;9.50;;;6.40;;
14268;SDS011;7218;51.480;7.006;2023-04-03T01:09:41;11.05;;;6.88;;
14268;SDS011;7218;51.480;7.006;2023-04-03T01:12:12;11.05;;;6.93;;
14268;SDS011;7218;51.480;7.006;2023-04-03T01:14:41;9.93;;;6.38;;
14268;SDS011;7218;51.480;7.006;2023-04-03T01:17:21;10.13;;;6.20;;
14268;SDS011;7218;51.480;7.006;2023-04-03T01:19:56;9.70;;;6.63;;
14268;SDS011;7218;51.480;7.006;2023-04-03T01:22:48;7.55;;;6.10;;
14268;SDS011;7218;51.480;7.006;2023-04-03T01:25:22;9.50;;;6.70;;
14268;SDS011;7218;51.480;7.006;2023-04-03T01:27:50;11.07;;;6.45;;
14268;SDS011;7218;51.480;7.006;2023-04-03T01:30:18;10.82;;;6.43;;
14268;SDS011;7218;51.480;7.006;2023-04-03T01:36:10;8.45;;;6.43;;
14268;SDS011;7218;51.480;7.006;2023-04-03T01:38:40;10.70;;;6.85;;
14268;SDS011;7218;51.480;7.006;2023-04-03T01:41:07;9.55;;;6.20;;
14268;SDS011;7218;51.480;7.006;2023-04-03T01:43:33;9.55;;;6.25;;
14268;SDS011;7218;51.480;7.006;2023-04-03T01:46:00;10.68;;;6.07;;
14268;SDS011;7218;51.480;7.006;2023-04-03T01:48:27;10.68;;;6.20;;
14268;SDS011;7218;51.480;7.006;2023-04-03T01:50:53;10.20;;;6.50;;
14268;SDS011;7218;51.480;7.006;2023-04-03T01:53:21;8.23;;;6.15;;
14268;SDS011;7218;51.480;7.006;2023-04-03T01:55:48;10.07;;;6.53;;
14268;SDS011;7218;51.480;7.006;2023-04-03T01:58:14;10.35;;;6.18;;
14268;SDS011;7218;51.480;7.006;2023-04-03T02:00:41;10.18;;;6.10;;
14268;SDS011;7218;51.480;7.006;2023-04-03T02:03:07;9.80;;;6.10;;
14268;SDS011;7218;51.480;7.006;2023-04-03T02:05:34;9.65;;;5.90;;
14268;SDS011;7218;51.480;7.006;2023-04-03T02:08:01;8.50;;;6.53;;
14268;SDS011;7218;51.480;7.006;2023-04-03T02:10:29;9.20;;;5.50;;
14268;SDS011;7218;51.480;7.006;2023-04-03T02:12:55;9.55;;;5.90;;
14268;SDS011;7218;51.480;7.006;2023-04-03T02:15:22;10.18;;;5.97;;
14268;SDS011;7218;51.480;7.006;2023-04-03T02:17:48;9.43;;;5.82;;
14268;SDS011;7218;51.480;7.006;2023-04-03T02:20:15;8.65;;;5.50;;
14268;SDS011;7218;51.480;7.006;2023-04-03T02:22:41;10.45;;;5.70;;
14268;SDS011;7218;51.480;7.006;2023-04-03T02:25:08;8.93;;;5.55;;
14268;SDS011;7218;51.480;7.006;2023-04-03T02:27:37;8.23;;;5.22;;
14268;SDS011;7218;51.480;7.006;2023-04-03T02:30:04;7.45;;;4.93;;
14268;SDS011;7218;51.480;7.006;2023-04-03T02:32:31;7.43;;;5.38;;
14268;SDS011;7218;51.480;7.006;2023-04-03T02:34:58;6.80;;;4.70;;
14268;SDS011;7218;51.480;7.006;2023-04-03T02:37:25;6.93;;;4.95;;
14268;SDS011;7218;51.480;7.006;2023-04-03T02:39:51;8.65;;;4.85;;
14268;SDS011;7218;51.480;7.006;2023-04-03T02:42:18;7.90;;;4.97;;
14268;SDS011;7218;51.480;7.006;2023-04-03T02:44:46;5.20;;;4.43;;
14268;SDS011;7218;51.480;7.006;2023-04-03T02:47:13;6.20;;;3.90;;
14268;SDS011;7218;51.480;7.006;2023-04-03T02:49:40;10.00;;;4.40;;
14268;SDS011;7218;51.480;7.006;2023-04-03T02:52:08;5.68;;;4.07;;
14268;SDS011;7218;51.480;7.006;2023-04-03T02:54:35;6.00;;;4.18;;
14268;SDS011;7218;51.480;7.006;2023-04-03T02:57:01;5.95;;;3.67;;
14268;SDS011;7218;51.480;7.006;2023-04-03T02:59:28;8.38;;;4.13;;
14268;SDS011;7218;51.480;7.006;2023-04-03T03:01:56;7.20;;;3.60;;
14268;SDS011;7218;51.480;7.006;2023-04-03T03:04:23;6.57;;;3.50;;
14268;SDS011;7218;51.480;7.006;2023-04-03T03:06:49;5.90;;;3.42;;
14268;SDS011;7218;51.480;7.006;2023-04-03T03:09:17;6.97;;;3.58;;
14268;SDS011;7218;51.480;7.006;2023-04-03T03:11:44;4.22;;;3.60;;
14268;SDS011;7218;51.480;7.006;2023-04-03T03:14:11;5.57;;;3.30;;
14268;SDS011;7218;51.480;7.006;2023-04-03T03:16:37;6.72;;;3.63;;
14268;SDS011;7218;51.480;7.006;2023-04-03T03:19:05;4.70;;;3.33;;
14268;SDS011;7218;51.480;7.006;2023-04-03T03:21:32;6.97;;;3.55;;
14268;SDS011;7218;51.480;7.006;2023-04-03T03:23:59;5.53;;;3.03;;
14268;SDS011;7218;51.480;7.006;2023-04-03T03:26:25;7.18;;;3.40;;
14268;SDS011;7218;51.480;7.006;2023-04-03T03:28:52;4.47;;;2.72;;
14268;SDS011;7218;51.480;7.006;2023-04-03T03:31:18;5.13;;;2.60;;
14268;SDS011;7218;51.480;7.006;2023-04-03T03:33:45;6.82;;;2.75;;
14268;SDS011;7218;51.480;7.006;2023-04-03T03:36:13;4.50;;;2.58;;
14268;SDS011;7218;51.480;7.006;2023-04-03T03:38:40;7.15;;;2.78;;
14268;SDS011;7218;51.480;7.006;2023-04-03T03:41:06;5.90;;;2.83;;
14268;SDS011;7218;51.480;7.006;2023-04-03T03:43:33;5.43;;;2.78;;
14268;SDS011;7218;51.480;7.006;2023-04-03T03:45:59;4.78;;;2.53;;
14268;SDS011;7218;51.480;7.006;2023-04-03T03:48:26;3.95;;;2.35;;
14268;SDS011;7218;51.480;7.006;2023-04-03T03:50:52;6.90;;;3.03;;
14268;SDS011;7218;51.480;7.006;2023-04-03T03:53:20;4.90;;;2.40;;
14268;SDS011;7218;51.480;7.006;2023-04-03T03:55:47;4.60;;;2.35;;
14268;SDS011;7218;51.480;7.006;2023-04-03T03:58:14;4.97;;;2.47;;
14268;SDS011;7218;51.480;7.006;2023-04-03T04:00:40;4.97;;;2.50;;
14268;SDS011;7218;51.480;7.006;2023-04-03T04:03:07;3.40;;;2.47;;
14268;SDS011;7218;51.480;7.006;2023-04-03T04:05:34;5.05;;;2.53;;
14268;SDS011;7218;51.480;7.006;2023-04-03T04:08:00;5.22;;;2.40;;
14268;SDS011;7218;51.480;7.006;2023-04-03T04:10:28;5.00;;;2.40;;
14268;SDS011;7218;51.480;7.006;2023-04-03T04:12:55;4.63;;;2.35;;
14268;SDS011;7218;51.480;7.006;2023-04-03T04:15:22;7.68;;;2.40;;
14268;SDS011;7218;51.480;7.006;2023-04-03T04:17:50;4.57;;;2.40;;
14268;SDS011;7218;51.480;7.006;2023-04-03T04:20:17;4.13;;;2.40;;
14268;SDS011;7218;51.480;7.006;2023-04-03T04:22:43;4.68;;;2.30;;
14268;SDS011;7218;51.480;7.006;2023-04-03T04:25:10;6.97;;;2.28;;
14268;SDS011;7218;51.480;7.006;2023-04-03T04:27:38;7.97;;;2.38;;
14268;SDS011;7218;51.480;7.006;2023-04-03T04:30:05;6.80;;;2.03;;
14268;SDS011;7218;51.480;7.006;2023-04-03T04:32:33;3.55;;;2.10;;
14268;SDS011;7218;51.480;7.006;2023-04-03T04:34:59;6.15;;;2.53;;
14268;SDS011;7218;51.480;7.006;2023-04-03T04:37:26;4.40;;;2.33;;
14268;SDS011;7218;51.480;7.006;2023-04-03T04:39:52;5.13;;;2.10;;
14268;SDS011;7218;51.480;7.006;2023-04-03T04:42:19;6.00;;;2.58;;
14268;SDS011;7218;51.480;7.006;2023-04-03T04:44:47;8.35;;;2.33;;
14268;SDS011;7218;51.480;7.006;2023-04-03T04:47:13;5.72;;;2.78;;
14268;SDS011;7218;51.480;7.006;2023-04-03T04:49:40;5.60;;;2.53;;
14268;SDS011;7218;51.480;7.006;2023-04-03T04:52:07;5.63;;;2.65;;
14268;SDS011;7218;51.480;7.006;2023-04-03T04:54:33;5.85;;;2.30;;
14268;SDS011;7218;51.480;7.006;2023-04-03T04:57:00;5.10;;;2.38;;
14268;SDS011;7218;51.480;7.006;2023-04-03T04:59:26;5.82;;;2.35;;
14268;SDS011;7218;51.480;7.006;2023-04-03T05:01:54;6.13;;;2.70;;
14268;SDS011;7218;51.480;7.006;2023-04-03T05:04:21;4.85;;;2.40;;
14268;SDS011;7218;51.480;7.006;2023-04-03T05:06:47;7.30;;;2.45;;
14268;SDS011;7218;51.480;7.006;2023-04-03T05:09:15;4.60;;;2.03;;
14268;SDS011;7218;51.480;7.006;2023-04-03T05:11:42;4.88;;;2.25;;
14268;SDS011;7218;51.480;7.006;2023-04-03T05:14:08;8.02;;;2.40;;
14268;SDS011;7218;51.480;7.006;2023-04-03T05:16:35;10.85;;;2.78;;
14268;SDS011;7218;51.480;7.006;2023-04-03T05:19:03;7.88;;;2.60;;
14268;SDS011;7218;51.480;7.006;2023-04-03T05:21:30;8.55;;;2.50;;
14268;SDS011;7218;51.480;7.006;2023-04-03T05:23:57;5.90;;;2.28;;
14268;SDS011;7218;51.480;7.006;2023-04-03T05:26:24;6.65;;;2.20;;
14268;SDS011;7218;51.480;7.006;2023-04-03T05:28:51;7.57;;;2.35;;
14268;SDS011;7218;51.480;7.006;2023-04-03T05:31:18;4.57;;;2.40;;
14268;SDS011;7218;51.480;7.006;2023-04-03T05:33:45;4.18;;;2.28;;
14268;SDS011;7218;51.480;7.006;2023-04-03T05:36:13;8.27;;;2.60;;
14268;SDS011;7218;51.480;7.006;2023-04-03T05:38:39;6.28;;;2.33;;
14268;SDS011;7218;51.480;7.006;2023-04-03T05:41:06;8.13;;;2.80;;
14268;SDS011;7218;51.480;7.006;2023-04-03T05:43:33;10.80;;;2.58;;
14268;SDS011;7218;51.480;7.006;2023-04-03T05:46:02;4.05;;;2.22;;
14268;SDS011;7218;51.480;7.006;2023-04-03T05:48:29;6.47;;;2.28;;
14268;SDS011;7218;51.480;7.006;2023-04-03T05:50:55;5.13;;;2.70;;
14268;SDS011;7218;51.480;7.006;2023-04-03T05:53:25;5.15;;;2.60;;
14268;SDS011;7218;51.480;7.006;2023-04-03T05:55:55;5.03;;;2.45;;
14268;SDS011;7218;51.480;7.006;2023-04-03T05:58:22;5.38;;;2.47;;
14268;SDS011;7218;51.480;7.006;2023-04-03T06:00:48;6.47;;;2.33;;
14268;SDS011;7218;51.480;7.006;2023-04-03T06:03:15;6.72;;;2.70;;
14268;SDS011;7218;51.480;7.006;2023-04-03T06:05:42;5.35;;;2.28;;
14268;SDS011;7218;51.480;7.006;2023-04-03T06:08:08;8.60;;;2.50;;
14268;SDS011;7218;51.480;7.006;2023-04-03T06:10:36;5.43;;;2.47;;
14268;SDS011;7218;51.480;7.006;2023-04-03T06:13:02;11.05;;;2.92;;
14268;SDS011;7218;51.480;7.006;2023-04-03T06:15:29;6.05;;;2.60;;
14268;SDS011;7218;51.480;7.006;2023-04-03T06:17:56;8.82;;;2.53;;
14268;SDS011;7218;51.480;7.006;2023-04-03T06:20:23;5.93;;;2.72;;
14268;SDS011;7218;51.480;7.006;2023-04-03T06:22:49;4.50;;;2.22;;
14268;SDS011;7218;51.480;7.006;2023-04-03T06:25:16;6.53;;;2.50;;
14268;SDS011;7218;51.480;7.006;2023-04-03T06:27:45;5.80;;;2.38;;
14268;SDS011;7218;51.480;7.006;2023-04-03T06:30:12;6.47;;;2.50;;
14268;SDS011;7218;51.480;7.006;2023-04-03T06:32:39;7.50;;;2.70;;
14268;SDS011;7218;51.480;7.006;2023-04-03T06:35:06;8.45;;;2.22;;
14268;SDS011;7218;51.480;7.006;2023-04-03T06:37:33;6.95;;;2.50;;
14268;SDS011;7218;51.480;7.006;2023-04-03T06:40:00;7.40;;;2.47;;
14268;SDS011;7218;51.480;7.006;2023-04-03T06:42:27;4.60;;;2.15;;
14268;SDS011;7218;51.480;7.006;2023-04-03T06:44:55;5.57;;;2.17;;
14268;SDS011;7218;51.480;7.006;2023-04-03T06:47:22;8.32;;;2.30;;
14268;SDS011;7218;51.480;7.006;2023-04-03T06:49:48;4.82;;;2.38;;
14268;SDS011;7218;51.480;7.006;2023-04-03T06:52:15;5.63;;;2.30;;
14268;SDS011;7218;51.480;7.006;2023-04-03T06:54:41;7.55;;;2.50;;
14268;SDS011;7218;51.480;7.006;2023-04-03T06:57:08;6.20;;;2.47;;
14268;SDS011;7218;51.480;7.006;2023-04-03T06:59:34;4.15;;;2.22;;
14268;SDS011;7218;51.480;7.006;2023-04-03T07:02:02;6.55;;;2.70;;
14268;SDS011;7218;51.480;7.006;2023-04-03T07:04:29;5.90;;;2.30;;
14268;SDS011;7218;51.480;7.006;2023-04-03T07:06:55;6.32;;;2.60;;
14268;SDS011;7218;51.480;7.006;2023-04-03T07:09:22;5.60;;;2.30;;
14268;SDS011;7218;51.480;7.006;2023-04-03T07:11:48;3.13;;;2.20;;
14268;SDS011;7218;51.480;7.006;2023-04-03T07:14:15;4.05;;;2.22;;
14268;SDS011;7218;51.480;7.006;2023-04-03T07:16:41;5.50;;;2.55;;
14268;SDS011;7218;51.480;7.006;2023-04-03T07:19:09;4.15;;;1.88;;
14268;SDS011;7218;51.480;7.006;2023-04-03T07:21:36;6.63;;;2.83;;
14268;SDS011;7218;51.480;7.006;2023-04-03T07:24:03;4.63;;;2.20;;
14268;SDS011;7218;51.480;7.006;2023-04-03T07:26:30;6.32;;;2.28;;
14268;SDS011;7218;51.480;7.006;2023-04-03T07:28:56;4.72;;;2.33;;
14268;SDS011;7218;51.480;7.006;2023-04-03T07:31:23;6.28;;;2.40;;
14268;SDS011;7218;51.480;7.006;2023-04-03T07:33:50;6.45;;;2.58;;
14268;SDS011;7218;51.480;7.006;2023-04-03T07:36:19;6.97;;;2.33;;
14268;SDS011;7218;51.480;7.006;2023-04-03T07:38:47;6.25;;;2.40;;
14268;SDS011;7218;51.480;7.006;2023-04-03T07:41:14;5.90;;;2.28;;
14268;SDS011;7218;51.480;7.006;2023-04-03T07:43:42;7.13;;;2.35;;
14268;SDS011;7218;51.480;7.006;2023-04-03T07:46:09;6.90;;;2.03;;
14268;SDS011;7218;51.480;7.006;2023-04-03T07:48:35;5.05;;;1.92;;
14268;SDS011;7218;51.480;7.006;2023-04-03T07:51:02;4.10;;;1.85;;
14268;SDS011;7218;51.480;7.006;2023-04-03T07:53:31;4.70;;;2.20;;
14268;SDS011;7218;51.480;7.006;2023-04-03T07:55:58;3.30;;;2.10;;
14268;SDS011;7218;51.480;7.006;2023-04-03T07:58:27;5.07;;;2.10;;
14268;SDS011;7218;51.480;7.006;2023-04-03T08:00:54;6.20;;;2.20;;
14268;SDS011;7218;51.480;7.006;2023-04-03T08:03:21;6.20;;;2.30;;
14268;SDS011;7218;51.480;7.006;2023-04-03T08:05:49;7.03;;;2.60;;
14268;SDS011;7218;51.480;7.006;2023-04-03T08:08:16;6.63;;;2.10;;
14268;SDS011;7218;51.480;7.006;2023-04-03T08:10:48;4.30;;;2.30;;
14268;SDS011;7218;51.480;7.006;2023-04-03T08:13:16;6.25;;;2.22;;
14268;SDS011;7218;51.480;7.006;2023-04-03T08:15:42;3.70;;;1.92;;
14268;SDS011;7218;51.480;7.006;2023-04-03T08:18:09;5.00;;;1.90;;
14268;SDS011;7218;51.480;7.006;2023-04-03T08:20:37;3.58;;;1.98;;
14268;SDS011;7218;51.480;7.006;2023-04-03T08:23:05;5.80;;;2.00;;
14268;SDS011;7218;51.480;7.006;2023-04-03T08:25:31;8.00;;;2.08;;
14268;SDS011;7218;51.480;7.006;2023-04-03T08:27:59;5.43;;;2.17;;
14268;SDS011;7218;51.480;7.006;2023-04-03T08:30:27;3.22;;;1.50;;
14268;SDS011;7218;51.480;7.006;2023-04-03T08:32:53;3.42;;;1.50;;
14268;SDS011;7218;51.480;7.006;2023-04-03T08:35:20;3.60;;;1.77;;
14268;SDS011;7218;51.480;7.006;2023-04-03T08:37:49;3.25;;;1.50;;
14268;SDS011;7218;51.480;7.006;2023-04-03T08:40:16;3.63;;;1.80;;
14268;SDS011;7218;51.480;7.006;2023-04-03T08:42:46;3.72;;;1.42;;
14268;SDS011;7218;51.480;7.006;2023-04-03T08:45:25;4.32;;;1.58;;
14268;SDS011;7218;51.480;7.006;2023-04-03T08:47:58;4.07;;;1.70;;
14268;SDS011;7218;51.480;7.006;2023-04-03T08:50:33;6.50;;;2.17;;
14268;SDS011;7218;51.480;7.006;2023-04-03T08:53:04;4.25;;;1.90;;
14268;SDS011;7218;51.480;7.006;2023-04-03T08:55:33;2.65;;;1.60;;
14268;SDS011;7218;51.480;7.006;2023-04-03T08:58:04;3.80;;;1.42;;
14268;SDS011;7218;51.480;7.006;2023-04-03T09:00:34;4.60;;;1.73;;
14268;SDS011;7218;51.480;7.006;2023-04-03T09:03:11;4.32;;;1.70;;
14268;SDS011;7218;51.480;7.006;2023-04-03T09:05:39;1.88;;;1.38;;
14268;SDS011;7218;51.480;7.006;2023-04-03T09:08:12;3.75;;;1.60;;
14268;SDS011;7218;51.480;7.006;2023-04-03T09:10:47;2.50;;;1.40;;
14268;SDS011;7218;51.480;7.006;2023-04-03T09:13:18;2.50;;;1.38;;
14268;SDS011;7218;51.480;7.006;2023-04-03T09:15:54;2.55;;;1.27;;
14268;SDS011;7218;51.480;7.006;2023-04-03T09:18:23;3.13;;;1.50;;
14268;SDS011;7218;51.480;7.006;2023-04-03T09:20:56;4.15;;;1.38;;
14268;SDS011;7218;51.480;7.006;2023-04-03T09:23:32;3.95;;;1.50;;
14268;SDS011;7218;51.480;7.006;2023-04-03T09:26:04;4.00;;;1.30;;
14268;SDS011;7218;51.480;7.006;2023-04-03T09:28:35;2.13;;;1.20;;
14268;SDS011;7218;51.480;7.006;2023-04-03T09:31:10;1.77;;;1.05;;
14268;SDS011;7218;51.480;7.006;2023-04-03T09:33:44;3.10;;;1.27;;
14268;SDS011;7218;51.480;7.006;2023-04-03T09:36:12;3.42;;;1.50;;
14268;SDS011;7218;51.480;7.006;2023-04-03T09:38:38;2.90;;;1.20;;
14268;SDS011;7218;51.480;7.006;2023-04-03T09:41:06;3.20;;;1.60;;
14268;SDS011;7218;51.480;7.006;2023-04-03T09:43:39;2.55;;;1.20;;
14268;SDS011;7218;51.480;7.006;2023-04-03T09:46:25;2.25;;;1.02;;
14268;SDS011;7218;51.480;7.006;2023-04-03T09:48:55;2.00;;;1.20;;
14268;SDS011;7218;51.480;7.006;2023-04-03T09:51:24;1.90;;;1.10;;
14268;SDS011;7218;51.480;7.006;2023-04-03T09:53:53;2.92;;;0.90;;
14268;SDS011;7218;51.480;7.006;2023-04-03T09:56:22;1.50;;;1.10;;
14268;SDS011;7218;51.480;7.006;2023-04-03T09:58:51;2.58;;;1.20;;
14268;SDS011;7218;51.480;7.006;2023-04-03T10:01:34;3.47;;;1.20;;
14268;SDS011;7218;51.480;7.006;2023-04-03T10:04:03;1.98;;;1.10;;
14268;SDS011;7218;51.480;7.006;2023-04-03T10:06:33;2.72;;;1.25;;
14268;SDS011;7218;51.480;7.006;2023-04-03T10:09:03;2.25;;;1.00;;
14268;SDS011;7218;51.480;7.006;2023-04-03T10:11:32;3.35;;;1.35;;
14268;SDS011;7218;51.480;7.006;2023-04-03T10:13:59;2.38;;;1.10;;
14268;SDS011;7218;51.480;7.006;2023-04-03T10:16:29;2.28;;;1.10;;
14268;SDS011;7218;51.480;7.006;2023-04-03T10:19:14;2.97;;;1.30;;
14268;SDS011;7218;51.480;7.006;2023-04-03T10:21:53;3.78;;;1.40;;
14268;SDS011;7218;51.480;7.006;2023-04-03T10:24:27;2.97;;;1.40;;
14268;SDS011;7218;51.480;7.006;2023-04-03T10:27:00;3.13;;;1.20;;
14268;SDS011;7218;51.480;7.006;2023-04-03T10:29:36;3.10;;;1.25;;
14268;SDS011;7218;51.480;7.006;2023-04-03T10:32:20;2.17;;;1.40;;
14268;SDS011;7218;51.480;7.006;2023-04-03T10:34:59;2.85;;;1.50;;
14268;SDS011;7218;51.480;7.006;2023-04-03T10:37:34;2.10;;;1.23;;
14268;SDS011;7218;51.480;7.006;2023-04-03T10:40:18;2.80;;;1.67;;
14268;SDS011;7218;51.480;7.006;2023-04-03T10:42:58;2.80;;;1.40;;
14268;SDS011;7218;51.480;7.006;2023-04-03T10:45:31;5.03;;;1.65;;
14268;SDS011;7218;51.480;7.006;2023-04-03T10:48:16;2.08;;;1.20;;
14268;SDS011;7218;51.480;7.006;2023-04-03T10:50:53;2.10;;;1.30;;
14268;SDS011;7218;51.480;7.006;2023-04-03T10:53:26;2.40;;;1.38;;
14268;SDS011;7218;51.480;7.006;2023-04-03T10:56:00;2.30;;;1.20;;
14268;SDS011;7218;51.480;7.006;2023-04-03T10:58:30;2.08;;;1.20;;
14268;SDS011;7218;51.480;7.006;2023-04-03T11:01:01;3.22;;;1.40;;
14268;SDS011;7218;51.480;7.006;2023-04-03T11:03:36;3.17;;;1.60;;
14268;SDS011;7218;51.480;7.006;2023-04-03T11:06:06;3.10;;;1.50;;
14268;SDS011;7218;51.480;7.006;2023-04-03T11:08:37;2.97;;;1.35;;
14268;SDS011;7218;51.480;7.006;2023-04-03T11:11:09;21.52;;;18.30;;
14268;SDS011;7218;51.480;7.006;2023-04-03T11:13:40;2.63;;;1.60;;
14268;SDS011;7218;51.480;7.006;2023-04-03T11:16:10;4.28;;;1.77;;
14268;SDS011;7218;51.480;7.006;2023-04-03T11:18:46;2.60;;;1.40;;
14268;SDS011;7218;51.480;7.006;2023-04-03T11:21:17;2.38;;;1.38;;
14268;SDS011;7218;51.480;7.006;2023-04-03T11:23:48;3.75;;;1.50;;
14268;SDS011;7218;51.480;7.006;2023-04-03T11:26:16;4.20;;;1.20;;
14268;SDS011;7218;51.480;7.006;2023-04-03T11:28:45;1.70;;;1.20;;
14268;SDS011;7218;51.480;7.006;2023-04-03T11:31:15;2.47;;;1.35;;
14268;SDS011;7218;51.480;7.006;2023-04-03T11:33:58;2.60;;;1.40;;
14268;SDS011;7218;51.480;7.006;2023-04-03T11:36:34;2.13;;;1.35;;
14268;SDS011;7218;51.480;7.006;2023-04-03T11:39:07;2.03;;;1.25;;
14268;SDS011;7218;51.480;7.006;2023-04-03T11:41:43;2.13;;;1.30;;
14268;SDS011;7218;51.480;7.006;2023-04-03T11:44:25;1.50;;;1.30;;
14268;SDS011;7218;51.480;7.006;2023-04-03T11:46:59;3.60;;;1.33;;
14268;SDS011;7218;51.480;7.006;2023-04-03T11:55:42;1.35;;;1.10;;
14268;SDS011;7218;51.480;7.006;2023-04-03T11:58:20;1.98;;;1.27;;
14268;SDS011;7218;51.480;7.006;2023-04-03T12:12:55;2.10;;;1.30;;
14268;SDS011;7218;51.480;7.006;2023-04-03T12:18:38;2.28;;;1.30;;
14268;SDS011;7218;51.480;7.006;2023-04-03T12:21:07;1.85;;;1.30;;
14268;SDS011;7218;51.480;7.006;2023-04-03T12:23:35;3.42;;;1.90;;
14268;SDS011;7218;51.480;7.006;2023-04-03T12:26:20;1.67;;;1.20;;
14268;SDS011;7218;51.480;7.006;2023-04-03T12:28:50;1.77;;;1.15;;
14268;SDS011;7218;51.480;7.006;2023-04-03T12:31:18;4.60;;;1.52;;
14268;SDS011;7218;51.480;7.006;2023-04-03T12:33:56;2.60;;;1.50;;
14268;SDS011;7218;51.480;7.006;2023-04-03T12:36:39;2.33;;;1.45;;
14268;SDS011;7218;51.480;7.006;2023-04-03T12:39:14;2.75;;;1.15;;
14268;SDS011;7218;51.480;7.006;2023-04-03T12:41:53;3.45;;;1.30;;
14268;SDS011;7218;51.480;7.006;2023-04-03T12:44:38;3.20;;;1.20;;
14268;SDS011;7218;51.480;7.006;2023-04-03T12:47:18;2.15;;;1.38;;
14268;SDS011;7218;51.480;7.006;2023-04-03T12:49:49;2.40;;;1.40;;
14268;SDS011;7218;51.480;7.006;2023-04-03T12:52:19;2.17;;;1.60;;
14268;SDS011;7218;51.480;7.006;2023-04-03T12:54:54;1.90;;;1.08;;
14268;SDS011;7218;51.480;7.006;2023-04-03T12:57:24;2.20;;;1.10;;
14268;SDS011;7218;51.480;7.006;2023-04-03T12:59:52;3.10;;;1.40;;
14268;SDS011;7218;51.480;7.006;2023-04-03T13:02:21;2.22;;;1.30;;
14268;SDS011;7218;51.480;7.006;2023-04-03T13:04:50;3.15;;;1.40;;
14268;SDS011;7218;51.480;7.006;2023-04-03T13:07:21;1.55;;;1.00;;
14268;SDS011;7218;51.480;7.006;2023-04-03T13:09:55;1.90;;;1.20;;
14268;SDS011;7218;51.480;7.006;2023-04-03T13:12:25;2.05;;;1.30;;
14268;SDS011;7218;51.480;7.006;2023-04-03T13:14:52;1.67;;;1.35;;
14268;SDS011;7218;51.480;7.006;2023-04-03T13:17:21;4.03;;;1.50;;
14268;SDS011;7218;51.480;7.006;2023-04-03T13:19:48;1.63;;;1.30;;
14268;SDS011;7218;51.480;7.006;2023-04-03T13:22:23;1.50;;;1.25;;
14268;SDS011;7218;51.480;7.006;2023-04-03T13:24:55;1.55;;;1.10;;
14268;SDS011;7218;51.480;7.006;2023-04-03T13:27:26;2.60;;;1.40;;
14268;SDS011;7218;51.480;7.006;2023-04-03T13:29:56;1.73;;;1.15;;
14268;SDS011;7218;51.480;7.006;2023-04-03T13:32:26;2.78;;;1.27;;
14268;SDS011;7218;51.480;7.006;2023-04-03T13:34:56;2.60;;;1.25;;
14268;SDS011;7218;51.480;7.006;2023-04-03T13:37:23;3.75;;;1.30;;
14268;SDS011;7218;51.480;7.006;2023-04-03T13:40:01;1.95;;;1.17;;
14268;SDS011;7218;51.480;7.006;2023-04-03T13:42:32;1.55;;;1.25;;
14268;SDS011;7218;51.480;7.006;2023-04-03T13:45:16;2.22;;;1.50;;
14268;SDS011;7218;51.480;7.006;2023-04-03T13:47:46;1.80;;;1.20;;
14268;SDS011;7218;51.480;7.006;2023-04-03T13:50:15;3.78;;;1.60;;
14268;SDS011;7218;51.480;7.006;2023-04-03T13:52:46;2.08;;;1.50;;
14268;SDS011;7218;51.480;7.006;2023-04-03T13:55:18;1.60;;;1.10;;
14268;SDS011;7218;51.480;7.006;2023-04-03T13:57:53;2.88;;;1.23;;
14268;SDS011;7218;51.480;7.006;2023-04-03T14:00:28;2.90;;;1.35;;
14268;SDS011;7218;51.480;7.006;2023-04-03T14:02:58;2.22;;;1.35;;
14268;SDS011;7218;51.480;7.006;2023-04-03T14:05:25;3.22;;;1.40;;
14268;SDS011;7218;51.480;7.006;2023-04-03T14:07:52;1.55;;;1.25;;
14268;SDS011;7218;51.480;7.006;2023-04-03T14:10:20;2.17;;;1.30;;
14268;SDS011;7218;51.480;7.006;2023-04-03T14:12:47;2.67;;;1.38;;
14268;SDS011;7218;51.480;7.006;2023-04-03T14:15:18;2.47;;;1.13;;
14268;SDS011;7218;51.480;7.006;2023-04-03T14:17:48;1.88;;;1.27;;
14268;SDS011;7218;51.480;7.006;2023-04-03T14:20:17;3.22;;;1.42;;
14268;SDS011;7218;51.480;7.006;2023-04-03T14:22:45;2.65;;;1.33;;
14268;SDS011;7218;51.480;7.006;2023-04-03T14:25:12;2.55;;;1.30;;
14268;SDS011;7218;51.480;7.006;2023-04-03T14:27:39;3.22;;;1.50;;
14268;SDS011;7218;51.480;7.006;2023-04-03T14:30:09;1.52;;;1.20;;
14268;SDS011;7218;51.480;7.006;2023-04-03T14:32:41;2.83;;;1.48;;
14268;SDS011;7218;51.480;7.006;2023-04-03T14:35:07;2.13;;;1.20;;
14268;SDS011;7218;51.480;7.006;2023-04-03T14:37:34;3.25;;;1.40;;
14268;SDS011;7218;51.480;7.006;2023-04-03T14:40:01;2.33;;;1.50;;
14268;SDS011;7218;51.480;7.006;2023-04-03T14:42:30;3.38;;;1.40;;
14268;SDS011;7218;51.480;7.006;2023-04-03T14:44:58;3.10;;;1.25;;
14268;SDS011;7218;51.480;7.006;2023-04-03T14:47:26;2.75;;;1.50;;
14268;SDS011;7218;51.480;7.006;2023-04-03T14:49:56;1.90;;;1.40;;
14268;SDS011;7218;51.480;7.006;2023-04-03T14:52:24;2.70;;;1.45;;
14268;SDS011;7218;51.480;7.006;2023-04-03T14:54:52;1.80;;;1.27;;
14268;SDS011;7218;51.480;7.006;2023-04-03T14:57:19;1.90;;;1.50;;
14268;SDS011;7218;51.480;7.006;2023-04-03T14:59:49;2.10;;;1.10;;
14268;SDS011;7218;51.480;7.006;2023-04-03T15:02:24;3.28;;;1.70;;
14268;SDS011;7218;51.480;7.006;2023-04-03T15:04:52;2.75;;;1.50;;
14268;SDS011;7218;51.480;7.006;2023-04-03T15:07:21;3.63;;;1.45;;
14268;SDS011;7218;51.480;7.006;2023-04-03T15:09:47;2.53;;;1.35;;
14268;SDS011;7218;51.480;7.006;2023-04-03T15:12:14;1.90;;;1.40;;
14268;SDS011;7218;51.480;7.006;2023-04-03T15:14:41;2.58;;;1.30;;
14268;SDS011;7218;51.480;7.006;2023-04-03T15:17:08;3.00;;;1.50;;
14268;SDS011;7218;51.480;7.006;2023-04-03T15:19:41;4.20;;;1.40;;
14268;SDS011;7218;51.480;7.006;2023-04-03T15:22:08;4.00;;;1.40;;
14268;SDS011;7218;51.480;7.006;2023-04-03T15:24:40;2.42;;;1.40;;
14268;SDS011;7218;51.480;7.006;2023-04-03T15:27:06;2.38;;;1.35;;
14268;SDS011;7218;51.480;7.006;2023-04-03T15:29:33;4.45;;;1.40;;
14268;SDS011;7218;51.480;7.006;2023-04-03T15:32:00;3.65;;;1.50;;
14268;SDS011;7218;51.480;7.006;2023-04-03T15:34:27;4.40;;;1.60;;
14268;SDS011;7218;51.480;7.006;2023-04-03T15:36:54;3.60;;;1.50;;
14268;SDS011;7218;51.480;7.006;2023-04-03T15:39:21;2.10;;;1.17;;